createdAt,value
2022-10-01T00:03:38.963Z,13.45
2022-10-01T00:09:02.561Z,13.57
2022-10-01T00:14:26.177Z,17.65
2022-10-01T00:19:51.105Z,16.10
2022-10-01T00:25:14.718Z,14.93
2022-10-01T00:30:40.407Z,14.80
2022-10-01T00:36:06.458Z,17.40
2022-10-01T00:41:32.136Z,14.77
2022-10-01T00:46:58.847Z,15.00
2022-10-01T00:52:28.969Z,15.23
2022-10-01T00:57:53.514Z,20.30
2022-10-01T01:03:17.868Z,12.38
2022-10-01T01:08:42.893Z,17.02
2022-10-01T01:14:15.805Z,16.63
2022-10-01T01:19:56.609Z,15.82
2022-10-01T01:25:25.071Z,15.57
2022-10-01T01:30:54.023Z,13.52
2022-10-01T01:36:21.706Z,14.95
2022-10-01T01:41:50.492Z,13.43
2022-10-01T01:47:15.761Z,14.60
2022-10-01T01:52:39.386Z,14.02
2022-10-01T01:58:03.855Z,19.33
2022-10-01T02:03:31.248Z,20.05
2022-10-01T02:09:02.151Z,14.23
2022-10-01T02:19:58.659Z,20.58
2022-10-01T02:25:26.944Z,16.73
2022-10-01T02:30:51.901Z,15.98
2022-10-01T02:36:18.562Z,20.23
2022-10-01T02:41:44.115Z,19.52
2022-10-01T02:47:14.214Z,15.25
2022-10-01T02:52:43.834Z,16.40
2022-10-01T02:58:08.839Z,18.75
2022-10-01T03:03:32.418Z,15.43
2022-10-01T03:09:00.089Z,16.60
2022-10-01T03:14:23.836Z,18.92
2022-10-01T03:19:47.421Z,17.77
2022-10-01T03:25:12.409Z,26.08
2022-10-01T03:30:35.961Z,24.27
2022-10-01T03:35:59.516Z,24.00
2022-10-01T03:41:24.483Z,25.25
2022-10-01T03:46:48.030Z,24.65
2022-10-01T03:52:11.629Z,27.33
2022-10-01T03:57:36.525Z,25.75
2022-10-01T04:03:00.148Z,25.58
2022-10-01T04:08:24.469Z,32.05
2022-10-01T04:13:49.686Z,23.77
2022-10-01T04:19:13.267Z,22.80
2022-10-01T04:24:36.824Z,23.58
2022-10-01T04:30:01.749Z,25.00
2022-10-01T04:35:25.668Z,19.80
2022-10-01T04:40:49.349Z,23.05
2022-10-01T04:46:14.812Z,20.83
2022-10-01T04:51:38.447Z,22.33
2022-10-01T04:57:02.028Z,23.35
2022-10-01T05:02:27.002Z,20.48
2022-10-01T05:07:51.258Z,18.08
2022-10-01T05:13:14.834Z,21.95
2022-10-01T05:18:40.551Z,21.17
2022-10-01T05:24:05.563Z,22.83
2022-10-01T05:29:29.099Z,20.85
2022-10-01T05:34:55.042Z,21.95
2022-10-01T05:40:19.550Z,14.88
2022-10-01T05:45:43.715Z,14.25
2022-10-01T05:51:08.749Z,17.92
2022-10-01T05:56:32.454Z,16.38
2022-10-01T06:01:57.174Z,13.30
2022-10-01T06:07:22.203Z,14.18
2022-10-01T06:12:46.196Z,10.45
2022-10-01T06:18:11.908Z,14.38
2022-10-01T06:23:37.257Z,13.75
2022-10-01T06:29:02.704Z,17.95
2022-10-01T06:34:26.734Z,16.95
2022-10-01T06:39:51.718Z,18.13
2022-10-01T06:45:15.883Z,16.63
2022-10-01T06:50:39.490Z,17.90
2022-10-01T06:56:08.833Z,17.90
2022-10-01T07:01:33.665Z,17.17
2022-10-01T07:06:58.282Z,18.92
2022-10-01T07:12:23.453Z,13.30
2022-10-01T07:17:48.954Z,18.15
2022-10-01T07:23:16.094Z,17.80
2022-10-01T07:28:41.026Z,17.83
2022-10-01T07:34:04.680Z,15.93
2022-10-01T07:39:28.322Z,16.60
2022-10-01T07:44:53.413Z,16.10
2022-10-01T07:50:17.050Z,22.60
2022-10-01T07:55:40.628Z,18.17
2022-10-01T08:01:06.055Z,16.98
2022-10-01T08:06:29.685Z,15.90
2022-10-01T08:11:53.298Z,14.45
2022-10-01T08:17:18.252Z,19.45
2022-10-01T08:22:42.463Z,18.48
2022-10-01T08:28:06.626Z,16.98
2022-10-01T08:33:31.653Z,20.98
2022-10-01T08:38:55.279Z,16.80
2022-10-01T08:44:22.026Z,23.35
2022-10-01T08:49:51.970Z,20.45
2022-10-01T08:55:23.698Z,25.77
2022-10-01T09:00:52.667Z,18.73
2022-10-01T09:06:21.695Z,22.73
2022-10-01T09:11:58.736Z,23.38
2022-10-01T09:17:34.550Z,23.23
2022-10-01T09:23:14.827Z,21.50
2022-10-01T09:28:40.667Z,22.40
2022-10-01T09:34:12.037Z,20.38
2022-10-01T09:39:43.775Z,16.88
2022-10-01T09:45:08.087Z,17.00
2022-10-01T09:50:38.558Z,18.95
2022-10-01T09:56:14.624Z,19.85
2022-10-01T10:01:44.569Z,19.58
2022-10-01T10:07:08.582Z,17.13
2022-10-01T10:12:34.747Z,18.08
2022-10-01T10:18:07.516Z,17.33
2022-10-01T10:23:31.518Z,19.17
2022-10-01T10:28:57.455Z,20.35
2022-10-01T10:34:25.502Z,20.95
2022-10-01T10:39:51.518Z,9.90
2022-10-01T10:45:20.502Z,9.00
2022-10-01T10:50:46.000Z,31.98
2022-10-01T10:56:21.896Z,11.90
2022-10-01T11:01:49.504Z,9.18
2022-10-01T11:07:19.843Z,5.53
2022-10-01T11:13:00.557Z,8.10
2022-10-01T11:18:48.572Z,3.42
2022-10-01T11:24:37.697Z,6.40
2022-10-01T11:30:06.281Z,8.37
2022-10-01T11:35:44.188Z,2.90
2022-10-01T11:41:20.138Z,4.03
2022-10-01T11:47:00.339Z,3.83
2022-10-01T11:52:34.513Z,9.20
2022-10-01T11:58:23.396Z,5.50
2022-10-01T12:04:04.015Z,16.83
2022-10-01T12:09:37.591Z,10.52
2022-10-01T12:15:09.954Z,7.70
2022-10-01T12:20:39.106Z,8.10
2022-10-01T12:26:25.853Z,11.17
2022-10-01T12:31:56.466Z,3.88
2022-10-01T12:37:31.939Z,5.68
2022-10-01T12:43:14.188Z,5.47
2022-10-01T12:48:42.476Z,5.70
2022-10-01T12:54:34.002Z,3.92
2022-10-01T13:00:07.937Z,4.95
2022-10-01T13:05:42.074Z,3.25
2022-10-01T13:11:20.555Z,3.97
2022-10-01T13:16:55.374Z,6.22
2022-10-01T13:22:32.231Z,4.28
2022-10-01T13:28:03.045Z,3.45
2022-10-01T13:33:32.077Z,4.38
2022-10-01T13:38:57.981Z,65.00
2022-10-01T13:44:26.607Z,17.48
2022-10-01T13:50:00.471Z,17.80
2022-10-01T13:55:28.188Z,18.40
2022-10-01T14:00:54.485Z,18.85
2022-10-01T14:06:25.835Z,29.25
2022-10-01T14:12:09.490Z,21.00
2022-10-01T14:17:35.860Z,24.30
2022-10-01T14:23:11.580Z,31.10
2022-10-01T14:28:49.951Z,32.72
2022-10-01T14:34:37.367Z,29.10
2022-10-01T14:40:16.005Z,29.67
2022-10-01T14:45:49.863Z,28.15
2022-10-01T14:51:26.156Z,28.50
2022-10-01T14:56:52.343Z,35.33
2022-10-01T15:02:21.269Z,40.53
2022-10-01T15:07:47.218Z,37.72
2022-10-01T15:13:20.164Z,38.92
2022-10-01T15:18:48.609Z,32.70
2022-10-01T15:24:21.703Z,29.13
2022-10-01T15:29:50.544Z,31.98
2022-10-01T15:35:21.569Z,19.35
2022-10-01T15:40:45.468Z,16.92
2022-10-01T15:46:17.024Z,23.58
2022-10-01T15:52:07.454Z,22.77
2022-10-01T15:57:33.605Z,20.80
2022-10-01T16:02:59.280Z,19.92
2022-10-01T16:08:25.632Z,12.05
2022-10-01T16:13:50.651Z,12.13
2022-10-01T16:19:24.468Z,15.07
2022-10-01T16:24:50.148Z,16.50
2022-10-01T16:30:21.311Z,15.00
2022-10-01T16:35:48.816Z,12.90
2022-10-01T16:41:13.924Z,13.95
2022-10-01T16:46:37.703Z,17.88
2022-10-01T16:52:03.100Z,15.02
2022-10-01T16:57:26.765Z,11.93
2022-10-01T17:02:50.580Z,15.57
2022-10-01T17:08:16.382Z,14.10
2022-10-01T17:13:40.297Z,9.70
2022-10-01T17:19:04.003Z,15.18
2022-10-01T17:24:29.162Z,12.70
2022-10-01T17:29:54.292Z,16.65
2022-10-01T17:35:19.069Z,15.57
2022-10-01T17:40:45.136Z,19.63
2022-10-01T17:46:08.849Z,15.75
2022-10-01T17:51:32.538Z,17.48
2022-10-01T17:56:57.578Z,12.85
2022-10-01T18:02:40.938Z,13.40
2022-10-01T18:08:05.081Z,12.00
2022-10-01T18:13:30.067Z,11.00
2022-10-01T18:19:52.519Z,12.18
2022-10-01T18:24:41.538Z,13.10
2022-10-01T18:30:07.698Z,13.63
2022-10-01T18:35:35.997Z,12.60
2022-10-01T18:41:04.548Z,14.80
2022-10-01T18:46:41.894Z,14.65
2022-10-01T18:52:18.457Z,10.77
2022-10-01T18:58:01.560Z,10.48
2022-10-01T19:03:50.622Z,12.75
2022-10-01T19:09:37.707Z,16.75
2022-10-01T19:15:12.719Z,15.07
2022-10-01T19:20:50.765Z,16.65
2022-10-01T19:26:22.911Z,20.98
2022-10-01T19:31:53.620Z,18.30
2022-10-01T19:37:27.508Z,12.52
2022-10-01T19:43:06.667Z,17.67
2022-10-01T19:48:35.816Z,12.93
2022-10-01T19:54:02.156Z,13.68
2022-10-01T19:59:28.096Z,14.05
2022-10-01T20:04:59.212Z,10.43
2022-10-01T20:15:56.115Z,12.93
2022-10-01T20:21:34.577Z,11.02
2022-10-01T20:27:11.539Z,18.17
2022-10-01T20:32:41.358Z,13.50
2022-10-01T20:38:09.588Z,16.15
2022-10-01T20:43:38.607Z,19.60
2022-10-01T20:49:05.439Z,13.48
2022-10-01T20:54:35.043Z,14.80
2022-10-01T21:00:05.615Z,13.18
2022-10-01T21:05:34.414Z,12.77
2022-10-01T21:11:01.006Z,11.02
2022-10-01T21:16:47.398Z,17.00
2022-10-01T21:22:26.614Z,14.75
2022-10-01T21:28:05.432Z,8.85
2022-10-01T21:33:34.479Z,10.18
2022-10-01T21:39:04.559Z,9.63
2022-10-01T21:44:48.183Z,8.02
2022-10-01T21:50:23.625Z,10.02
2022-10-01T21:56:03.503Z,10.43
2022-10-01T22:01:50.763Z,9.20
2022-10-01T22:07:22.888Z,9.48
2022-10-01T22:12:51.947Z,14.50
2022-10-01T22:18:21.678Z,16.70
2022-10-01T22:23:51.845Z,12.48
2022-10-01T22:29:19.323Z,13.48
2022-10-01T22:34:47.850Z,10.55
2022-10-01T22:40:19.071Z,6.93
2022-10-01T22:45:55.377Z,8.52
2022-10-01T22:51:33.608Z,8.52
2022-10-01T22:57:09.384Z,17.10
2022-10-01T23:02:37.067Z,8.93
2022-10-01T23:08:10.310Z,9.50
2022-10-01T23:13:41.510Z,7.60
2022-10-01T23:24:55.719Z,6.72
2022-10-01T23:30:21.602Z,5.03
2022-10-01T23:35:53.492Z,6.68
2022-10-01T23:41:22.594Z,5.30
2022-10-01T23:46:51.897Z,9.43
2022-10-01T23:52:22.374Z,5.18
2022-10-01T23:57:48.323Z,6.60
